createdAt,value
2022-09-28T00:02:01.632Z,77.98
2022-09-28T00:04:30.712Z,78.20
2022-09-28T00:06:59.931Z,78.44
2022-09-28T00:09:30.512Z,78.62
2022-09-28T00:11:59.794Z,78.87
2022-09-28T00:14:29.065Z,79.12
2022-09-28T00:16:58.341Z,78.78
2022-09-28T00:19:27.446Z,78.94
2022-09-28T00:21:56.734Z,78.87
2022-09-28T00:24:27.786Z,79.49
2022-09-28T00:27:01.436Z,79.41
2022-09-28T00:29:32.360Z,78.94
2022-09-28T00:32:03.518Z,78.69
2022-09-28T00:34:36.343Z,79.12
2022-09-28T00:37:08.859Z,79.14
2022-09-28T00:39:38.772Z,79.59
2022-09-28T00:42:15.642Z,80.31
2022-09-28T00:44:48.707Z,79.31
2022-09-28T00:47:31.274Z,79.75
2022-09-28T00:50:04.276Z,79.85
2022-09-28T00:52:37.221Z,79.77
2022-09-28T00:55:09.922Z,79.66
2022-09-28T00:57:44.429Z,79.63
2022-09-28T01:00:14.795Z,79.88
2022-09-28T01:02:44.798Z,80.10
2022-09-28T01:05:15.322Z,79.91
2022-09-28T01:07:45.523Z,79.96
2022-09-28T01:10:15.501Z,80.24
2022-09-28T01:12:46.081Z,80.05
2022-09-28T01:15:16.669Z,81.31
2022-09-28T01:18:09.262Z,80.69
2022-09-28T01:20:57.375Z,80.78
2022-09-28T01:24:04.318Z,81.27
2022-09-28T01:26:54.767Z,80.93
2022-09-28T01:29:37.239Z,80.61
2022-09-28T01:32:22.347Z,80.40
2022-09-28T01:34:59.140Z,80.72
2022-09-28T01:37:37.396Z,81.09
2022-09-28T01:40:08.854Z,80.38
2022-09-28T01:42:42.513Z,80.60
2022-09-28T01:45:29.195Z,80.60
2022-09-28T01:48:03.258Z,80.67
2022-09-28T01:50:37.265Z,80.34
2022-09-28T01:53:13.138Z,79.82
2022-09-28T01:55:46.231Z,80.35
2022-09-28T01:58:26.138Z,80.21
2022-09-28T02:01:00.939Z,80.09
2022-09-28T02:03:36.587Z,79.75
2022-09-28T02:06:10.745Z,79.41
2022-09-28T02:08:45.205Z,79.58
2022-09-28T02:11:16.302Z,79.59
2022-09-28T02:13:50.886Z,79.34
2022-09-28T02:16:24.202Z,79.29
2022-09-28T02:18:53.757Z,79.79
2022-09-28T02:21:28.718Z,79.56
2022-09-28T02:24:02.692Z,79.91
2022-09-28T02:26:36.156Z,80.56
2022-09-28T02:29:06.934Z,78.88
2022-09-28T02:36:34.329Z,80.03
2022-09-28T02:39:03.670Z,79.59
2022-09-28T02:41:43.974Z,79.41
2022-09-28T02:44:30.671Z,79.15
2022-09-28T02:47:05.701Z,79.48
2022-09-28T02:49:49.308Z,79.12
2022-09-28T02:52:37.978Z,79.62
2022-09-28T02:55:20.343Z,79.54
2022-09-28T02:58:04.822Z,79.80
2022-09-28T03:00:42.313Z,79.73
2022-09-28T03:03:19.530Z,79.70
2022-09-28T03:05:58.515Z,79.77
2022-09-28T03:08:34.604Z,79.82
2022-09-28T03:11:08.728Z,79.95
2022-09-28T03:13:39.361Z,79.90
2022-09-28T03:16:15.988Z,79.46
2022-09-28T03:18:47.768Z,79.75
2022-09-28T03:21:18.020Z,79.63
2022-09-28T03:23:48.005Z,79.53
2022-09-28T03:26:19.999Z,79.97
2022-09-28T03:28:49.348Z,80.39
2022-09-28T03:31:26.001Z,80.27
2022-09-28T03:33:55.717Z,80.06
2022-09-28T03:36:25.003Z,81.69
2022-09-28T03:38:55.147Z,80.98
2022-09-28T03:41:27.769Z,80.88
2022-09-28T03:43:57.070Z,80.46
2022-09-28T03:46:29.841Z,80.77
2022-09-28T03:49:04.579Z,80.74
2022-09-28T03:51:33.895Z,80.88
2022-09-28T03:54:03.226Z,80.92
2022-09-28T03:56:33.198Z,80.62
2022-09-28T03:59:03.829Z,80.69
2022-09-28T04:01:34.930Z,81.18
2022-09-28T04:04:04.282Z,81.05
2022-09-28T04:06:33.443Z,81.13
2022-09-28T04:09:02.860Z,81.06
2022-09-28T04:11:47.546Z,80.66
2022-09-28T04:14:17.506Z,80.73
2022-09-28T04:16:48.709Z,80.90
2022-09-28T04:19:18.884Z,82.01
2022-09-28T04:22:07.398Z,81.72
2022-09-28T04:24:36.853Z,81.59
2022-09-28T04:27:23.372Z,81.03
2022-09-28T04:29:52.977Z,81.57
2022-09-28T04:32:23.514Z,81.12
2022-09-28T04:34:53.839Z,81.98
2022-09-28T04:37:23.435Z,81.96
2022-09-28T04:39:52.963Z,81.98
2022-09-28T04:42:22.381Z,82.30
2022-09-28T04:44:52.773Z,82.35
2022-09-28T04:47:23.540Z,82.24
2022-09-28T04:49:52.956Z,82.66
2022-09-28T04:52:28.292Z,82.18
2022-09-28T04:54:57.502Z,82.53
2022-09-28T04:57:27.778Z,82.85
2022-09-28T04:59:57.071Z,82.38
2022-09-28T05:02:29.532Z,82.20
2022-09-28T05:05:17.901Z,82.34
2022-09-28T05:08:00.218Z,82.41
2022-09-28T05:10:29.813Z,82.56
2022-09-28T05:12:59.164Z,82.64
2022-09-28T05:15:28.809Z,82.41
2022-09-28T05:17:59.595Z,82.49
2022-09-28T05:20:42.804Z,82.30
2022-09-28T05:23:13.019Z,81.73
2022-09-28T05:25:45.519Z,82.08
2022-09-28T05:28:30.072Z,81.62
2022-09-28T05:31:18.084Z,81.33
2022-09-28T05:34:11.338Z,81.28
2022-09-28T05:36:42.801Z,81.53
2022-09-28T05:39:11.931Z,81.42
2022-09-28T05:41:42.092Z,81.58
2022-09-28T05:44:11.560Z,81.56
2022-09-28T05:46:40.578Z,81.54
2022-09-28T05:49:14.213Z,81.68
2022-09-28T05:51:43.551Z,81.60
2022-09-28T05:54:12.645Z,81.52
2022-09-28T05:56:45.701Z,81.34
2022-09-28T05:59:15.714Z,81.37
2022-09-28T06:01:44.847Z,81.93
2022-09-28T06:04:16.597Z,81.85
2022-09-28T06:06:47.131Z,82.45
2022-09-28T06:09:16.447Z,82.48
2022-09-28T06:12:04.833Z,82.48
2022-09-28T06:14:47.235Z,82.08
2022-09-28T06:17:17.038Z,81.88
2022-09-28T06:19:53.398Z,81.35
2022-09-28T06:22:35.083Z,82.15
2022-09-28T06:25:10.946Z,81.20
2022-09-28T06:27:42.754Z,80.41
2022-09-28T06:30:13.249Z,80.50
2022-09-28T06:32:43.203Z,81.26
2022-09-28T06:35:15.542Z,81.47
2022-09-28T06:37:46.810Z,81.26
2022-09-28T06:40:16.379Z,81.08
2022-09-28T06:42:46.047Z,81.46
2022-09-28T06:45:53.803Z,81.29
2022-09-28T06:48:41.860Z,80.30
2022-09-28T06:51:16.225Z,80.81
2022-09-28T06:53:56.940Z,80.91
2022-09-28T06:56:52.476Z,80.93
2022-09-28T06:59:22.354Z,79.46
2022-09-28T07:01:51.816Z,80.41
2022-09-28T07:04:27.217Z,79.82
2022-09-28T07:07:16.155Z,79.64
2022-09-28T07:10:10.498Z,80.06
2022-09-28T07:13:15.267Z,80.21
2022-09-28T07:15:56.942Z,78.98
2022-09-28T07:18:26.912Z,78.85
2022-09-28T07:20:58.181Z,78.42
2022-09-28T07:23:30.634Z,77.95
2022-09-28T07:26:35.452Z,78.23
2022-09-28T07:29:11.841Z,77.82
2022-09-28T07:31:54.193Z,77.60
2022-09-28T07:34:43.662Z,77.50
2022-09-28T07:37:37.431Z,77.48
2022-09-28T07:40:46.241Z,77.25
2022-09-28T07:43:20.656Z,78.39
2022-09-28T07:45:54.080Z,76.91
2022-09-28T07:48:24.288Z,76.71
2022-09-28T07:51:12.663Z,76.88
2022-09-28T07:53:44.715Z,76.85
2022-09-28T07:56:34.919Z,77.21
2022-09-28T07:59:26.882Z,76.59
2022-09-28T08:02:15.186Z,76.96
2022-09-28T08:04:45.025Z,76.33
2022-09-28T08:07:14.296Z,75.61
2022-09-28T08:09:43.694Z,76.39
2022-09-28T08:12:34.260Z,76.03
2022-09-28T08:15:37.293Z,76.04
2022-09-28T08:18:24.524Z,75.23
2022-09-28T08:21:12.040Z,75.61
2022-09-28T08:23:41.513Z,75.17
2022-09-28T08:26:14.712Z,76.64
2022-09-28T08:28:47.917Z,77.13
2022-09-28T08:31:36.248Z,77.10
2022-09-28T08:34:38.364Z,75.85
2022-09-28T08:37:16.794Z,76.09
2022-09-28T08:40:05.282Z,76.13
2022-09-28T08:42:52.259Z,75.72
2022-09-28T08:45:49.734Z,75.19
2022-09-28T08:49:13.547Z,73.88
2022-09-28T08:52:09.052Z,75.13
2022-09-28T08:55:03.844Z,73.98
2022-09-28T08:57:46.182Z,74.03
2022-09-28T09:00:22.277Z,73.70
2022-09-28T09:02:53.321Z,72.83
2022-09-28T09:05:42.010Z,72.33
2022-09-28T09:08:25.967Z,73.92
2022-09-28T09:11:04.253Z,72.51
2022-09-28T09:14:09.172Z,72.80
2022-09-28T09:16:49.423Z,72.47
2022-09-28T09:20:00.359Z,72.14
2022-09-28T09:23:00.783Z,71.59
2022-09-28T09:25:38.513Z,71.61
2022-09-28T09:28:43.861Z,71.37
2022-09-28T09:31:27.662Z,72.98
2022-09-28T09:34:23.191Z,72.99
2022-09-28T09:37:06.672Z,73.42
2022-09-28T09:40:26.381Z,73.81
2022-09-28T09:43:22.624Z,72.63
2022-09-28T09:46:25.136Z,72.06
2022-09-28T09:49:08.022Z,72.98
2022-09-28T09:51:41.327Z,70.44
2022-09-28T09:54:19.918Z,71.68
2022-09-28T09:56:54.854Z,72.01
2022-09-28T09:59:46.283Z,72.26
2022-09-28T10:02:28.066Z,71.93
2022-09-28T10:05:20.369Z,71.84
2022-09-28T10:07:55.993Z,71.50
2022-09-28T10:10:32.481Z,70.84
2022-09-28T10:13:13.612Z,69.90
2022-09-28T10:15:45.908Z,70.62
2022-09-28T10:18:22.298Z,71.06
2022-09-28T10:21:15.149Z,71.33
2022-09-28T10:23:58.935Z,70.40
2022-09-28T10:26:36.797Z,69.63
2022-09-28T10:29:14.810Z,69.81
2022-09-28T10:31:47.358Z,69.80
2022-09-28T10:34:32.454Z,69.71
2022-09-28T10:37:13.041Z,69.92
2022-09-28T10:40:30.294Z,69.54
2022-09-28T10:43:09.266Z,68.88
2022-09-28T10:45:39.967Z,68.25
2022-09-28T10:48:17.862Z,68.21
2022-09-28T10:51:01.255Z,67.66
2022-09-28T10:53:31.427Z,67.57
2022-09-28T10:56:22.701Z,67.95
2022-09-28T10:59:03.156Z,68.13
2022-09-28T11:01:45.543Z,67.71
2022-09-28T11:04:23.499Z,67.19
2022-09-28T11:09:32.796Z,65.65
2022-09-28T11:12:15.553Z,64.07
2022-09-28T11:14:52.868Z,62.66
2022-09-28T11:17:29.707Z,61.24
2022-09-28T11:20:00.930Z,54.65
2022-09-28T11:22:41.828Z,53.04
2022-09-28T11:25:24.747Z,55.18
2022-09-28T11:28:04.733Z,52.26
2022-09-28T11:30:41.826Z,46.76
2022-09-28T11:33:43.368Z,41.48
2022-09-28T11:37:07.608Z,44.07
2022-09-28T11:39:50.014Z,41.11
2022-09-28T11:42:32.665Z,47.87
2022-09-28T11:45:12.932Z,45.54
2022-09-28T11:47:54.114Z,41.93
2022-09-28T11:50:29.513Z,42.33
2022-09-28T11:53:18.027Z,40.27
2022-09-28T11:55:53.194Z,43.16
2022-09-28T11:58:30.929Z,38.83
2022-09-28T12:01:06.949Z,37.20
2022-09-28T12:04:01.344Z,36.72
2022-09-28T12:06:38.828Z,36.00
2022-09-28T12:09:17.081Z,39.10
2022-09-28T12:12:01.272Z,39.60
2022-09-28T12:14:46.843Z,36.80
2022-09-28T12:17:23.411Z,40.30
2022-09-28T12:19:59.547Z,43.98
2022-09-28T12:22:36.073Z,45.35
2022-09-28T12:25:12.157Z,46.72
2022-09-28T12:27:46.278Z,48.57
2022-09-28T12:30:20.189Z,46.37
2022-09-28T12:32:54.504Z,46.57
2022-09-28T12:35:37.271Z,46.01
2022-09-28T12:38:32.073Z,49.25
2022-09-28T12:41:17.080Z,48.44
2022-09-28T12:44:00.611Z,50.47
2022-09-28T12:46:49.015Z,52.03
2022-09-28T12:55:21.036Z,54.39
2022-09-28T12:58:00.827Z,53.92
2022-09-28T13:00:40.082Z,51.95
2022-09-28T13:03:36.987Z,51.13
2022-09-28T13:06:37.592Z,54.37
2022-09-28T13:09:23.794Z,54.23
2022-09-28T13:12:13.224Z,52.92
2022-09-28T13:15:06.831Z,48.77
2022-09-28T13:17:53.427Z,36.41
2022-09-28T13:20:44.613Z,41.81
2022-09-28T13:23:20.632Z,43.63
2022-09-28T13:25:57.281Z,47.32
2022-09-28T13:28:28.554Z,49.38
2022-09-28T13:33:40.641Z,49.12
2022-09-28T13:36:38.980Z,47.65
2022-09-28T13:39:48.761Z,47.27
2022-09-28T13:43:00.386Z,47.31
2022-09-28T13:45:41.920Z,49.65
2022-09-28T13:48:20.876Z,49.81
2022-09-28T13:51:17.400Z,50.45
2022-09-28T13:54:04.351Z,51.32
2022-09-28T13:56:43.680Z,52.29
2022-09-28T13:59:23.305Z,51.76
2022-09-28T14:01:58.148Z,51.39
2022-09-28T14:04:55.642Z,51.51
2022-09-28T14:07:26.239Z,52.27
2022-09-28T14:10:21.130Z,51.71
2022-09-28T14:12:51.561Z,53.03
2022-09-28T14:15:44.095Z,54.38
2022-09-28T14:18:25.480Z,55.26
2022-09-28T14:21:37.345Z,55.35
2022-09-28T14:24:17.406Z,55.49
2022-09-28T14:27:29.095Z,55.28
2022-09-28T14:30:17.828Z,56.33
2022-09-28T14:32:56.280Z,55.91
2022-09-28T14:35:35.029Z,56.98
2022-09-28T14:38:32.184Z,57.16
2022-09-28T14:41:10.664Z,57.02
2022-09-28T14:44:03.971Z,56.80
2022-09-28T14:46:44.396Z,57.35
2022-09-28T14:50:00.708Z,57.90
2022-09-28T14:52:47.754Z,58.17
2022-09-28T14:55:20.401Z,57.84
2022-09-28T14:57:56.886Z,57.49
2022-09-28T15:00:29.494Z,58.35
2022-09-28T15:03:02.326Z,57.58
2022-09-28T15:05:43.909Z,58.88
2022-09-28T15:08:13.933Z,58.42
2022-09-28T15:10:48.134Z,58.83
2022-09-28T15:13:23.577Z,58.36
2022-09-28T15:15:54.452Z,58.41
2022-09-28T15:18:49.081Z,58.27
2022-09-28T15:21:20.680Z,58.58
2022-09-28T15:23:49.926Z,58.22
2022-09-28T15:26:27.619Z,58.70
2022-09-28T15:28:57.044Z,60.00
2022-09-28T15:31:28.497Z,59.55
2022-09-28T15:34:14.937Z,59.05
2022-09-28T15:36:47.242Z,59.75
2022-09-28T15:39:19.762Z,60.59
2022-09-28T15:41:51.618Z,60.55
2022-09-28T15:44:33.081Z,59.56
2022-09-28T15:47:11.020Z,59.01
2022-09-28T15:49:45.052Z,59.21
2022-09-28T15:52:29.150Z,59.55
2022-09-28T15:55:01.092Z,59.62
2022-09-28T15:57:41.279Z,59.16
2022-09-28T16:00:27.799Z,59.55
2022-09-28T16:03:02.178Z,59.78
2022-09-28T16:05:43.017Z,60.12
2022-09-28T16:08:21.501Z,60.57
2022-09-28T16:11:05.251Z,60.98
2022-09-28T16:13:35.181Z,62.18
2022-09-28T16:16:04.409Z,62.20
2022-09-28T16:18:39.406Z,61.57
2022-09-28T16:21:31.620Z,64.83
2022-09-28T16:24:02.476Z,66.96
2022-09-28T16:26:35.551Z,68.75
2022-09-28T16:29:10.897Z,70.18
2022-09-28T16:31:43.273Z,69.50
2022-09-28T16:34:21.175Z,70.76
2022-09-28T16:36:51.760Z,70.53
2022-09-28T16:39:22.187Z,70.92
2022-09-28T16:41:55.430Z,69.72
2022-09-28T16:44:28.516Z,70.58
2022-09-28T16:47:00.985Z,72.49
2022-09-28T16:49:32.290Z,73.36
2022-09-28T16:52:02.500Z,72.81
2022-09-28T16:54:51.622Z,71.49
2022-09-28T16:57:20.924Z,73.71
2022-09-28T16:59:49.927Z,73.89
2022-09-28T17:02:46.178Z,74.44
2022-09-28T17:05:14.938Z,74.85
2022-09-28T17:07:45.923Z,75.02
2022-09-28T17:10:28.266Z,75.32
2022-09-28T17:12:57.441Z,75.06
2022-09-28T17:15:26.916Z,75.37
2022-09-28T17:17:56.507Z,73.39
2022-09-28T17:20:28.677Z,74.14
2022-09-28T17:22:58.180Z,74.59
2022-09-28T17:25:29.090Z,74.22
2022-09-28T17:27:59.616Z,74.63
2022-09-28T17:30:29.023Z,75.51
2022-09-28T17:33:01.626Z,75.54
2022-09-28T17:35:30.994Z,76.04
2022-09-28T17:38:00.587Z,75.96
2022-09-28T17:40:31.847Z,76.68
2022-09-28T17:43:01.370Z,76.56
2022-09-28T17:45:32.103Z,77.31
2022-09-28T17:48:01.890Z,76.59
2022-09-28T17:50:34.461Z,76.75
2022-09-28T17:53:06.267Z,76.38
2022-09-28T17:55:40.880Z,76.02
2022-09-28T17:58:17.729Z,77.13
2022-09-28T18:00:49.142Z,77.03
2022-09-28T18:03:20.433Z,76.51
2022-09-28T18:05:59.363Z,76.61
2022-09-28T18:08:28.398Z,76.75
2022-09-28T18:10:59.227Z,77.83
2022-09-28T18:13:28.576Z,77.59
2022-09-28T18:15:58.480Z,78.16
2022-09-28T18:18:27.935Z,77.50
2022-09-28T18:20:57.155Z,77.76
2022-09-28T18:23:26.238Z,77.67
2022-09-28T18:25:55.808Z,78.20
2022-09-28T18:28:29.152Z,78.33
2022-09-28T18:30:58.566Z,78.76
2022-09-28T18:33:27.939Z,78.47
2022-09-28T18:35:57.614Z,78.26
2022-09-28T18:38:26.890Z,78.07
2022-09-28T18:40:56.605Z,78.15
2022-09-28T18:43:26.164Z,78.03
2022-09-28T18:45:57.009Z,77.90
2022-09-28T18:48:28.052Z,78.59
2022-09-28T18:50:57.695Z,78.50
2022-09-28T18:53:26.971Z,77.82
2022-09-28T18:55:57.756Z,78.50
2022-09-28T18:58:27.880Z,77.20
2022-09-28T19:01:18.730Z,77.88
2022-09-28T19:03:47.829Z,78.04
2022-09-28T19:06:18.166Z,77.58
2022-09-28T19:08:52.259Z,77.96
2022-09-28T19:11:25.328Z,77.34
2022-09-28T19:13:55.951Z,78.51
2022-09-28T19:16:29.199Z,78.14
2022-09-28T19:18:58.974Z,78.64
2022-09-28T19:21:28.206Z,78.50
2022-09-28T19:23:57.685Z,78.07
2022-09-28T19:26:28.228Z,78.67
2022-09-28T19:29:00.375Z,78.15
2022-09-28T19:31:31.366Z,78.64
2022-09-28T19:34:00.734Z,78.20
2022-09-28T19:36:30.490Z,78.57
2022-09-28T19:39:02.906Z,77.63
2022-09-28T19:41:44.532Z,77.61
2022-09-28T19:44:24.745Z,78.87
2022-09-28T19:46:58.162Z,78.72
2022-09-28T19:49:33.104Z,78.40
2022-09-28T19:52:18.462Z,77.93
2022-09-28T19:54:52.126Z,78.17
2022-09-28T19:57:21.409Z,78.52
2022-09-28T19:59:52.698Z,78.04
2022-09-28T20:02:24.129Z,78.39
2022-09-28T20:04:53.246Z,78.17
2022-09-28T20:07:22.926Z,77.27
2022-09-28T20:09:52.090Z,77.09
2022-09-28T20:12:21.209Z,77.92
2022-09-28T20:14:50.153Z,77.13
2022-09-28T20:17:22.051Z,77.72
2022-09-28T20:19:52.740Z,77.17
2022-09-28T20:22:22.316Z,77.85
2022-09-28T20:24:51.319Z,77.44
2022-09-28T20:27:23.187Z,77.41
2022-09-28T20:29:55.436Z,77.07
2022-09-28T20:32:24.840Z,76.78
2022-09-28T20:34:55.298Z,77.50
2022-09-28T20:37:25.610Z,77.60
2022-09-28T20:39:55.470Z,78.10
2022-09-28T20:42:24.590Z,78.36
2022-09-28T20:44:54.278Z,77.90
2022-09-28T20:47:23.319Z,77.57
2022-09-28T20:49:52.284Z,77.57
2022-09-28T20:52:23.198Z,77.25
2022-09-28T20:54:52.352Z,77.25
2022-09-28T20:57:21.416Z,77.05
2022-09-28T20:59:54.591Z,77.73
2022-09-28T21:02:24.136Z,77.67
2022-09-28T21:04:54.166Z,79.20
2022-09-28T21:07:24.698Z,79.39
2022-09-28T21:09:54.427Z,78.17
2022-09-28T21:12:26.040Z,77.96
2022-09-28T21:14:55.338Z,78.36
2022-09-28T21:17:24.314Z,78.68
2022-09-28T21:19:53.198Z,77.84
2022-09-28T21:22:23.911Z,78.10
2022-09-28T21:24:53.143Z,77.94
2022-09-28T21:27:22.197Z,77.75
2022-09-28T21:29:51.363Z,77.46
2022-09-28T21:32:20.538Z,76.75
2022-09-28T21:34:50.524Z,76.71
2022-09-28T21:37:19.814Z,76.38
2022-09-28T21:39:50.147Z,77.52
2022-09-28T21:42:19.229Z,77.30
2022-09-28T21:44:48.324Z,76.99
2022-09-28T21:47:17.360Z,76.80
2022-09-28T21:49:46.233Z,76.90
2022-09-28T21:52:15.350Z,76.54
2022-09-28T21:54:44.329Z,75.99
2022-09-28T21:57:14.711Z,76.77
2022-09-28T21:59:43.829Z,77.01
2022-09-28T22:02:13.651Z,77.20
2022-09-28T22:04:42.653Z,77.04
2022-09-28T22:07:12.223Z,77.19
2022-09-28T22:09:41.258Z,77.31
2022-09-28T22:12:10.751Z,76.62
2022-09-28T22:14:41.472Z,76.52
2022-09-28T22:17:10.688Z,77.22
2022-09-28T22:19:40.461Z,76.47
2022-09-28T22:22:09.942Z,77.25
2022-09-28T22:24:39.023Z,76.91
2022-09-28T22:27:08.256Z,77.15
2022-09-28T22:29:37.505Z,76.63
2022-09-28T22:32:08.080Z,77.08
2022-09-28T22:34:37.535Z,77.16
2022-09-28T22:37:06.814Z,77.21
2022-09-28T22:39:37.864Z,77.27
2022-09-28T22:42:07.458Z,77.38
2022-09-28T22:44:37.822Z,77.13
2022-09-28T22:47:08.612Z,76.89
2022-09-28T22:49:37.845Z,76.74
2022-09-28T22:52:06.817Z,77.18
2022-09-28T22:54:35.903Z,77.34
2022-09-28T22:57:05.294Z,77.16
2022-09-28T22:59:34.415Z,76.95
2022-09-28T23:02:03.715Z,76.75
2022-09-28T23:04:34.525Z,76.18
2022-09-28T23:07:03.754Z,76.22
2022-09-28T23:09:33.264Z,76.05
2022-09-28T23:12:02.630Z,76.77
2022-09-28T23:14:31.585Z,76.42
2022-09-28T23:17:01.131Z,77.45
2022-09-28T23:19:30.241Z,76.73
2022-09-28T23:22:00.678Z,77.67
2022-09-28T23:24:30.000Z,77.27
2022-09-28T23:26:59.154Z,76.50
2022-09-28T23:29:28.305Z,77.01
2022-09-28T23:31:57.496Z,76.72
2022-09-28T23:34:26.488Z,76.65
2022-09-28T23:36:56.856Z,77.38
2022-09-28T23:39:27.448Z,76.58
2022-09-28T23:41:57.866Z,76.95
2022-09-28T23:44:28.153Z,76.32
2022-09-28T23:46:57.709Z,77.36
2022-09-28T23:49:26.787Z,76.60
2022-09-28T23:51:56.143Z,76.77
2022-09-28T23:54:26.496Z,76.59
2022-09-28T23:56:55.662Z,77.04
2022-09-28T23:59:24.948Z,77.29
